createdAt,value
2019-01-09T00:02:27.137Z,3.98
2019-01-09T00:04:58.060Z,3.99
2019-01-09T00:07:29.056Z,4.02
2019-01-09T00:09:59.932Z,4.04
2019-01-09T00:12:30.822Z,3.99
2019-01-09T00:15:01.656Z,3.92
2019-01-09T00:17:32.891Z,3.88
2019-01-09T00:20:04.148Z,3.88
2019-01-09T00:22:34.955Z,3.87
2019-01-09T00:25:05.999Z,3.86
2019-01-09T00:27:36.832Z,3.88
2019-01-09T00:30:08.025Z,3.91
2019-01-09T00:32:39.098Z,3.93
2019-01-09T00:35:09.973Z,3.97
2019-01-09T00:37:41.028Z,3.89
2019-01-09T00:40:12.120Z,3.91
2019-01-09T00:42:43.023Z,3.88
2019-01-09T00:45:13.875Z,3.86
2019-01-09T00:47:44.702Z,3.87
2019-01-09T00:50:15.796Z,3.82
2019-01-09T00:52:46.849Z,3.81
2019-01-09T00:55:17.943Z,3.78
2019-01-09T00:57:49.007Z,3.79
2019-01-09T01:00:20.323Z,3.82
2019-01-09T01:03:37.262Z,3.86
2019-01-09T01:06:53.987Z,3.79
2019-01-09T01:10:04.702Z,3.77
2019-01-09T01:13:08.498Z,3.75
2019-01-09T01:16:11.317Z,3.72
2019-01-09T01:19:25.339Z,3.74
2019-01-09T01:22:43.712Z,3.71
2019-01-09T01:26:00.597Z,3.68
2019-01-09T01:29:02.692Z,3.68
2019-01-09T01:32:07.158Z,3.72
2019-01-09T01:34:50.964Z,3.69
2019-01-09T01:37:59.968Z,3.63
2019-01-09T01:41:27.226Z,3.62
2019-01-09T01:44:10.386Z,3.57
2019-01-09T01:47:23.702Z,3.58
2019-01-09T01:50:03.300Z,3.55
2019-01-09T01:52:57.879Z,3.60
2019-01-09T01:55:48.276Z,3.64
2019-01-09T01:59:00.410Z,3.66
2019-01-09T02:02:02.118Z,3.62
2019-01-09T02:05:13.087Z,3.70
2019-01-09T02:07:51.309Z,3.72
2019-01-09T02:10:49.721Z,3.77
2019-01-09T02:13:31.436Z,3.74
2019-01-09T02:16:29.380Z,3.74
2019-01-09T02:19:27.860Z,3.72
2019-01-09T02:22:36.153Z,3.74
2019-01-09T02:25:39.612Z,3.78
2019-01-09T02:28:43.225Z,3.79
2019-01-09T02:31:36.493Z,3.85
2019-01-09T02:34:07.778Z,3.86
2019-01-09T02:36:38.805Z,3.86
2019-01-09T02:39:09.592Z,3.91
2019-01-09T02:41:40.442Z,3.86
2019-01-09T02:44:11.358Z,3.93
2019-01-09T02:46:42.143Z,3.91
2019-01-09T02:49:13.178Z,3.88
2019-01-09T02:51:44.044Z,3.86
2019-01-09T02:54:14.823Z,3.92
2019-01-09T02:56:45.608Z,3.87
2019-01-09T02:59:16.864Z,3.85
2019-01-09T03:01:48.715Z,3.86
2019-01-09T03:04:20.696Z,3.85
2019-01-09T03:06:51.855Z,3.81
2019-01-09T03:09:22.985Z,3.79
2019-01-09T03:11:54.372Z,3.80
2019-01-09T03:14:25.607Z,3.84
2019-01-09T03:16:56.717Z,3.85
2019-01-09T03:19:28.084Z,3.82
2019-01-09T03:21:59.368Z,3.85
2019-01-09T03:24:30.763Z,3.86
2019-01-09T03:27:02.382Z,3.83
2019-01-09T03:29:33.833Z,3.83
2019-01-09T03:32:05.238Z,3.83
2019-01-09T03:34:36.611Z,3.81
2019-01-09T03:37:07.735Z,3.78
2019-01-09T03:39:39.072Z,3.79
2019-01-09T03:42:10.210Z,3.82
2019-01-09T03:44:40.982Z,3.85
2019-01-09T03:47:12.358Z,3.78
2019-01-09T03:49:43.400Z,3.78
2019-01-09T03:52:14.710Z,3.76
2019-01-09T03:54:45.557Z,3.72
2019-01-09T03:57:17.139Z,3.76
2019-01-09T03:59:48.771Z,3.74
2019-01-09T04:02:19.790Z,3.70
2019-01-09T04:04:50.811Z,3.66
2019-01-09T04:07:21.827Z,3.71
2019-01-09T04:09:53.121Z,3.68
2019-01-09T04:12:24.643Z,3.65
2019-01-09T04:14:55.477Z,3.68
2019-01-09T04:17:26.256Z,3.68
2019-01-09T04:19:57.019Z,3.68
2019-01-09T04:22:28.029Z,3.76
2019-01-09T04:24:58.795Z,3.63
2019-01-09T04:27:29.815Z,3.74
2019-01-09T04:30:01.222Z,3.72
2019-01-09T04:32:32.292Z,3.66
2019-01-09T04:35:03.355Z,3.68
2019-01-09T04:37:34.258Z,3.65
2019-01-09T04:40:05.529Z,3.62
2019-01-09T04:42:36.378Z,3.53
2019-01-09T04:45:07.694Z,3.42
2019-01-09T04:47:38.739Z,3.29
2019-01-09T04:50:09.504Z,3.22
2019-01-09T04:52:40.287Z,3.13
2019-01-09T04:55:11.039Z,2.96
2019-01-09T04:57:41.819Z,2.86
2019-01-09T05:00:12.590Z,2.59
2019-01-09T05:02:43.678Z,2.59
2019-01-09T05:05:14.436Z,2.56
2019-01-09T05:07:45.439Z,2.50
2019-01-09T05:10:16.307Z,2.51
2019-01-09T05:12:47.090Z,2.52
2019-01-09T05:15:17.868Z,2.44
2019-01-09T05:17:48.658Z,2.37
2019-01-09T05:20:19.769Z,2.22
2019-01-09T05:22:50.790Z,2.12
2019-01-09T05:25:21.560Z,1.89
2019-01-09T05:27:52.355Z,1.78
2019-01-09T05:30:23.468Z,1.66
2019-01-09T05:32:54.277Z,1.60
2019-01-09T05:35:25.293Z,1.58
2019-01-09T05:37:56.077Z,1.71
2019-01-09T05:40:27.089Z,1.68
2019-01-09T05:42:57.888Z,1.58
2019-01-09T05:45:28.912Z,1.44
2019-01-09T05:47:59.979Z,1.43
2019-01-09T05:50:31.279Z,1.51
2019-01-09T05:53:02.471Z,1.58
2019-01-09T05:55:33.809Z,1.59
2019-01-09T05:58:05.263Z,1.56
2019-01-09T06:00:39.422Z,1.58
2019-01-09T06:03:10.232Z,1.62
2019-01-09T06:05:41.083Z,1.58
2019-01-09T06:08:12.262Z,1.49
2019-01-09T06:10:43.349Z,1.47
2019-01-09T06:13:14.217Z,1.48
2019-01-09T06:15:45.126Z,1.43
2019-01-09T06:18:15.995Z,1.42
2019-01-09T06:20:47.079Z,1.38
2019-01-09T06:23:17.944Z,1.37
2019-01-09T06:25:49.284Z,1.41
2019-01-09T06:28:20.471Z,1.38
2019-01-09T06:30:51.242Z,1.48
2019-01-09T06:33:22.125Z,1.54
2019-01-09T06:35:53.215Z,1.48
2019-01-09T06:38:24.012Z,1.58
2019-01-09T06:40:55.110Z,1.64
2019-01-09T06:43:26.409Z,1.72
2019-01-09T06:45:57.277Z,1.76
2019-01-09T06:48:28.411Z,1.77
2019-01-09T06:50:59.845Z,1.83
2019-01-09T06:53:30.903Z,1.83
2019-01-09T06:56:01.901Z,1.85
2019-01-09T06:58:33.178Z,1.90
2019-01-09T07:01:04.170Z,1.89
2019-01-09T07:03:35.230Z,1.91
2019-01-09T07:06:06.450Z,1.97
2019-01-09T07:08:37.577Z,1.97
2019-01-09T07:11:08.501Z,1.95
2019-01-09T07:13:39.550Z,1.96
2019-01-09T07:16:10.395Z,1.86
2019-01-09T07:18:41.272Z,1.97
2019-01-09T07:21:12.310Z,2.04
2019-01-09T07:23:43.523Z,2.03
2019-01-09T07:26:14.627Z,2.00
2019-01-09T07:28:46.000Z,2.14
2019-01-09T07:31:17.141Z,2.06
2019-01-09T07:33:48.242Z,2.10
2019-01-09T07:36:19.640Z,2.14
2019-01-09T07:38:50.834Z,2.14
2019-01-09T07:41:21.936Z,2.11
2019-01-09T07:43:52.960Z,2.05
2019-01-09T07:46:23.809Z,2.07
2019-01-09T07:48:54.858Z,2.03
2019-01-09T07:51:25.693Z,2.03
2019-01-09T07:53:57.558Z,1.99
2019-01-09T07:56:28.394Z,2.06
2019-01-09T07:58:59.196Z,2.13
2019-01-09T08:01:30.353Z,2.14
2019-01-09T08:04:01.144Z,2.17
2019-01-09T08:06:32.646Z,2.18
2019-01-09T08:09:05.289Z,2.15
2019-01-09T08:11:36.447Z,2.20
2019-01-09T08:14:08.234Z,2.14
2019-01-09T08:16:39.108Z,2.20
2019-01-09T08:19:09.981Z,2.22
2019-01-09T08:21:41.250Z,2.24
2019-01-09T08:24:12.301Z,2.28
2019-01-09T08:26:43.150Z,2.34
2019-01-09T08:29:14.324Z,2.37
2019-01-09T08:31:45.132Z,2.38
2019-01-09T08:34:16.033Z,2.47
2019-01-09T08:36:46.964Z,2.49
2019-01-09T08:39:17.838Z,2.54
2019-01-09T08:41:49.008Z,2.60
2019-01-09T08:44:19.877Z,2.63
2019-01-09T08:46:50.661Z,2.69
2019-01-09T08:49:21.552Z,2.75
2019-01-09T08:51:52.952Z,2.78
2019-01-09T08:54:24.009Z,2.83
2019-01-09T08:56:55.100Z,2.83
2019-01-09T08:59:26.409Z,2.91
2019-01-09T09:01:57.200Z,2.96
2019-01-09T09:04:28.315Z,3.11
2019-01-09T09:06:59.396Z,3.18
2019-01-09T09:09:32.001Z,3.23
2019-01-09T09:12:03.089Z,3.22
2019-01-09T09:14:33.882Z,3.18
2019-01-09T09:17:04.958Z,3.14
2019-01-09T09:19:35.817Z,3.21
2019-01-09T09:22:07.120Z,3.15
2019-01-09T09:24:38.138Z,3.12
2019-01-09T09:27:08.905Z,3.14
2019-01-09T09:29:39.698Z,3.14
2019-01-09T09:32:10.617Z,3.12
2019-01-09T09:34:41.407Z,3.08
2019-01-09T09:37:12.181Z,3.12
2019-01-09T09:39:43.055Z,3.05
2019-01-09T09:42:13.893Z,3.12
2019-01-09T09:44:44.682Z,3.15
2019-01-09T09:47:15.451Z,3.08
2019-01-09T09:49:46.552Z,3.06
2019-01-09T09:52:17.648Z,3.23
2019-01-09T09:54:48.635Z,3.22
2019-01-09T09:57:19.900Z,3.28
2019-01-09T09:59:50.691Z,3.29
2019-01-09T10:02:21.542Z,3.28
2019-01-09T10:04:52.347Z,3.26
2019-01-09T10:07:23.135Z,3.32
2019-01-09T10:09:54.654Z,3.34
2019-01-09T10:12:25.434Z,3.45
2019-01-09T10:14:56.644Z,3.52
2019-01-09T10:17:27.675Z,3.56
2019-01-09T10:19:58.546Z,3.56
2019-01-09T10:22:29.637Z,3.50
2019-01-09T10:25:00.577Z,3.49
2019-01-09T10:27:31.583Z,3.42
2019-01-09T10:30:02.458Z,3.50
2019-01-09T10:32:33.309Z,3.54
2019-01-09T10:35:04.586Z,3.43
2019-01-09T10:37:35.657Z,3.43
2019-01-09T10:40:07.500Z,3.50
2019-01-09T10:42:38.427Z,3.58
2019-01-09T10:45:10.413Z,3.57
2019-01-09T10:47:41.344Z,3.50
2019-01-09T10:50:12.996Z,3.51
2019-01-09T10:52:43.785Z,3.56
2019-01-09T10:55:15.391Z,3.51
2019-01-09T10:57:46.322Z,3.52
2019-01-09T11:00:22.559Z,3.62
2019-01-09T11:02:53.524Z,3.74
2019-01-09T11:05:24.660Z,3.71
2019-01-09T11:07:55.522Z,3.69
2019-01-09T11:10:26.376Z,3.68
2019-01-09T11:12:57.384Z,3.70
2019-01-09T11:15:28.407Z,3.66
2019-01-09T11:17:59.247Z,3.65
2019-01-09T11:20:30.043Z,3.58
2019-01-09T11:23:00.824Z,3.66
2019-01-09T11:25:31.705Z,3.76
2019-01-09T11:28:02.776Z,3.73
2019-01-09T11:30:33.909Z,3.72
2019-01-09T11:33:04.754Z,3.59
2019-01-09T11:35:35.857Z,3.65
2019-01-09T11:38:06.628Z,3.62
2019-01-09T11:40:37.485Z,3.69
2019-01-09T11:43:08.492Z,3.70
2019-01-09T11:45:39.662Z,3.80
2019-01-09T11:48:10.532Z,3.71
2019-01-09T11:50:41.403Z,3.75
2019-01-09T11:53:12.519Z,3.86
2019-01-09T11:55:43.382Z,3.77
2019-01-09T11:58:15.605Z,3.89
2019-01-09T12:00:46.476Z,3.86
2019-01-09T12:03:17.425Z,3.92
2019-01-09T12:05:48.235Z,3.85
2019-01-09T12:08:19.316Z,3.87
2019-01-09T12:10:50.227Z,3.81
2019-01-09T12:13:20.980Z,3.70
2019-01-09T12:15:51.768Z,3.70
2019-01-09T12:18:22.630Z,3.64
2019-01-09T12:20:53.479Z,3.61
2019-01-09T12:23:24.572Z,3.53
2019-01-09T12:25:55.446Z,3.43
2019-01-09T12:28:26.454Z,3.38
2019-01-09T12:30:57.565Z,3.45
2019-01-09T12:33:28.409Z,3.42
2019-01-09T12:35:59.391Z,3.38
2019-01-09T12:38:30.110Z,3.31
2019-01-09T12:41:01.413Z,3.26
2019-01-09T12:43:32.484Z,3.29
2019-01-09T12:46:03.597Z,3.25
2019-01-09T12:48:34.613Z,3.26
2019-01-09T12:51:05.530Z,3.32
2019-01-09T12:53:36.405Z,3.41
2019-01-09T12:56:07.830Z,3.32
2019-01-09T12:58:38.610Z,3.25
2019-01-09T13:01:09.721Z,3.16
2019-01-09T13:03:40.499Z,3.20
2019-01-09T13:06:11.635Z,2.99
2019-01-09T13:08:42.425Z,2.90
2019-01-09T13:11:13.538Z,2.77
2019-01-09T13:13:44.298Z,2.44
2019-01-09T13:16:15.161Z,2.40
2019-01-09T13:18:46.231Z,2.35
2019-01-09T13:21:17.334Z,2.42
2019-01-09T13:23:48.381Z,2.37
2019-01-09T13:26:19.547Z,2.43
2019-01-09T13:28:50.380Z,2.63
2019-01-09T13:31:21.408Z,2.68
2019-01-09T13:33:52.510Z,2.59
2019-01-09T13:36:23.372Z,2.70
2019-01-09T13:38:54.135Z,2.69
2019-01-09T13:41:25.299Z,2.77
2019-01-09T13:43:56.382Z,2.75
2019-01-09T13:46:27.181Z,2.86
2019-01-09T13:48:58.183Z,2.89
2019-01-09T13:51:29.550Z,2.94
2019-01-09T13:54:00.397Z,2.99
2019-01-09T13:56:31.500Z,3.04
2019-01-09T13:59:02.514Z,3.06
2019-01-09T14:01:33.614Z,2.98
2019-01-09T14:04:04.547Z,3.09
2019-01-09T14:06:35.537Z,2.98
2019-01-09T14:09:09.110Z,3.27
2019-01-09T14:11:39.892Z,3.21
2019-01-09T14:14:10.744Z,3.24
2019-01-09T14:16:41.747Z,3.16
2019-01-09T14:19:12.993Z,3.11
2019-01-09T14:21:44.262Z,3.18
2019-01-09T14:24:15.591Z,3.06
2019-01-09T14:26:46.699Z,2.92
2019-01-09T14:29:17.793Z,2.95
2019-01-09T14:31:48.972Z,2.92
2019-01-09T14:34:19.742Z,2.80
2019-01-09T14:36:50.598Z,2.83
2019-01-09T14:39:21.609Z,2.95
2019-01-09T14:41:52.628Z,3.03
2019-01-09T14:44:23.899Z,3.06
2019-01-09T14:46:54.693Z,3.10
2019-01-09T14:49:25.705Z,3.05
2019-01-09T14:51:56.508Z,3.04
2019-01-09T14:54:27.294Z,3.03
2019-01-09T14:56:58.095Z,3.11
2019-01-09T14:59:29.106Z,2.99
2019-01-09T15:01:59.979Z,2.97
2019-01-09T15:04:31.074Z,2.90
2019-01-09T15:07:02.043Z,2.95
2019-01-09T15:09:32.918Z,3.02
2019-01-09T15:12:04.075Z,2.89
2019-01-09T15:14:35.106Z,2.89
2019-01-09T15:17:05.958Z,2.82
2019-01-09T15:19:37.134Z,2.72
2019-01-09T15:22:08.042Z,2.70
2019-01-09T15:24:39.239Z,2.72
2019-01-09T15:27:10.296Z,2.67
2019-01-09T15:29:41.405Z,2.58
2019-01-09T15:32:12.492Z,2.56
2019-01-09T15:34:43.681Z,2.51
2019-01-09T15:37:14.771Z,2.56
2019-01-09T15:39:45.584Z,2.71
2019-01-09T15:42:16.635Z,2.69
2019-01-09T15:44:47.678Z,2.65
2019-01-09T15:47:18.518Z,2.63
2019-01-09T15:49:49.503Z,2.61
2019-01-09T15:52:20.666Z,2.64
2019-01-09T15:54:51.774Z,2.58
2019-01-09T15:57:22.567Z,2.57
2019-01-09T15:59:53.359Z,2.65
2019-01-09T16:02:24.364Z,2.56
2019-01-09T16:04:55.465Z,2.57
2019-01-09T16:07:26.247Z,2.49
2019-01-09T16:09:57.045Z,2.43
2019-01-09T16:12:28.050Z,2.46
2019-01-09T16:14:58.841Z,2.42
2019-01-09T16:17:29.626Z,2.37
2019-01-09T16:20:01.811Z,2.30
2019-01-09T16:22:32.841Z,2.37
2019-01-09T16:25:03.997Z,2.38
2019-01-09T16:27:35.254Z,2.30
2019-01-09T16:30:12.190Z,2.40
2019-01-09T16:32:43.146Z,2.42
2019-01-09T16:35:14.531Z,2.32
2019-01-09T16:37:45.989Z,2.33
2019-01-09T16:40:23.216Z,2.32
2019-01-09T16:42:50.007Z,2.39
2019-01-09T16:45:20.868Z,2.40
2019-01-09T16:47:51.848Z,2.31
2019-01-09T16:50:23.191Z,2.32
2019-01-09T16:52:54.044Z,2.28
2019-01-09T16:55:24.969Z,2.25
2019-01-09T16:57:55.812Z,2.23
2019-01-09T17:00:28.389Z,2.25
2019-01-09T17:02:59.180Z,2.25
2019-01-09T17:05:29.986Z,2.28
2019-01-09T17:08:01.155Z,2.42
2019-01-09T17:10:33.042Z,2.43
2019-01-09T17:13:03.886Z,2.40
2019-01-09T17:15:34.920Z,2.40
2019-01-09T17:18:06.590Z,2.49
2019-01-09T17:20:37.380Z,2.72
2019-01-09T17:23:08.462Z,2.79
2019-01-09T17:25:39.248Z,2.67
2019-01-09T17:28:10.263Z,2.58
2019-01-09T17:30:41.131Z,2.67
2019-01-09T17:33:12.261Z,2.59
2019-01-09T17:35:43.270Z,2.50
2019-01-09T17:38:16.108Z,2.51
2019-01-09T17:40:47.089Z,2.50
2019-01-09T17:43:17.941Z,2.52
2019-01-09T17:45:48.729Z,2.44
2019-01-09T17:48:20.205Z,2.55
2019-01-09T17:50:51.299Z,2.44
2019-01-09T17:53:22.155Z,2.35
2019-01-09T17:55:53.462Z,2.35
2019-01-09T17:58:24.505Z,2.37
2019-01-09T18:00:55.958Z,2.45
2019-01-09T18:03:26.954Z,2.58
2019-01-09T18:05:57.965Z,2.57
2019-01-09T18:08:29.045Z,2.52
2019-01-09T18:11:00.522Z,2.51
2019-01-09T18:13:31.783Z,2.44
2019-01-09T18:16:02.902Z,2.53
2019-01-09T18:18:34.645Z,2.56
2019-01-09T18:21:06.287Z,2.55
2019-01-09T18:23:37.074Z,2.59
2019-01-09T18:26:07.950Z,2.59
2019-01-09T18:28:38.729Z,2.58
2019-01-09T18:31:50.304Z,2.52
2019-01-09T18:34:37.829Z,2.57
2019-01-09T18:37:38.599Z,2.43
2019-01-09T18:40:48.747Z,2.51
2019-01-09T18:43:39.656Z,2.58
2019-01-09T18:46:56.554Z,2.35
2019-01-09T18:49:45.241Z,2.16
2019-01-09T18:52:42.007Z,1.92
2019-01-09T18:55:12.894Z,1.72
2019-01-09T18:57:43.981Z,1.68
2019-01-09T19:00:21.491Z,1.61
2019-01-09T19:02:53.647Z,1.47
2019-01-09T19:05:24.817Z,1.35
2019-01-09T19:07:55.669Z,1.35
2019-01-09T19:10:26.866Z,1.15
2019-01-09T19:12:57.655Z,1.12
2019-01-09T19:15:29.069Z,1.03
2019-01-09T19:18:00.153Z,1.22
2019-01-09T19:20:31.164Z,1.23
2019-01-09T19:23:02.088Z,1.30
2019-01-09T19:25:33.025Z,1.45
2019-01-09T19:28:04.106Z,1.57
2019-01-09T19:30:34.990Z,1.61
2019-01-09T19:33:06.124Z,1.58
2019-01-09T19:35:37.470Z,1.67
2019-01-09T19:38:08.702Z,1.65
2019-01-09T19:40:39.799Z,1.73
2019-01-09T19:43:10.653Z,1.65
2019-01-09T19:45:42.137Z,1.73
2019-01-09T19:48:12.987Z,1.73
2019-01-09T19:50:44.174Z,1.79
2019-01-09T19:53:15.029Z,1.75
2019-01-09T19:55:46.243Z,1.75
2019-01-09T19:58:17.416Z,1.78
2019-01-09T20:00:48.830Z,1.76
2019-01-09T20:03:28.635Z,1.71
2019-01-09T20:05:59.810Z,1.65
2019-01-09T20:08:30.715Z,1.58
2019-01-09T20:11:01.923Z,1.54
2019-01-09T20:13:32.753Z,1.56
2019-01-09T20:16:03.684Z,1.60
2019-01-09T20:18:34.804Z,1.61
2019-01-09T20:21:05.935Z,1.58
2019-01-09T20:23:37.118Z,1.58
2019-01-09T20:26:08.656Z,1.53
2019-01-09T20:28:39.656Z,1.55
2019-01-09T20:31:10.523Z,1.52
2019-01-09T20:33:41.508Z,1.53
2019-01-09T20:36:14.315Z,1.47
2019-01-09T20:38:45.722Z,1.47
2019-01-09T20:41:17.062Z,1.55
2019-01-09T20:43:48.219Z,1.46
2019-01-09T20:46:19.397Z,1.50
2019-01-09T20:48:50.353Z,1.49
2019-01-09T20:51:21.796Z,1.45
2019-01-09T20:53:53.194Z,1.54
2019-01-09T20:56:24.526Z,1.65
2019-01-09T20:58:55.626Z,1.53
2019-01-09T21:01:26.432Z,1.55
2019-01-09T21:03:57.505Z,1.58
2019-01-09T21:06:28.445Z,1.55
2019-01-09T21:09:00.229Z,1.50
2019-01-09T21:11:31.523Z,1.38
2019-01-09T21:14:02.386Z,1.43
2019-01-09T21:16:33.250Z,1.45
2019-01-09T21:19:04.190Z,1.35
2019-01-09T21:21:35.071Z,1.30
2019-01-09T21:24:06.129Z,1.26
2019-01-09T21:26:36.999Z,1.21
2019-01-09T21:29:07.857Z,1.12
2019-01-09T21:31:38.952Z,1.12
2019-01-09T21:34:10.294Z,1.12
2019-01-09T21:36:41.227Z,1.03
2019-01-09T21:39:12.066Z,1.11
2019-01-09T21:41:43.237Z,1.09
2019-01-09T21:44:15.981Z,1.14
2019-01-09T21:46:47.129Z,1.10
2019-01-09T21:49:17.897Z,1.08
2019-01-09T21:51:49.004Z,1.03
2019-01-09T21:54:20.142Z,1.04
2019-01-09T21:56:51.263Z,1.05
2019-01-09T21:59:23.343Z,1.11
2019-01-09T22:01:55.120Z,1.05
2019-01-09T22:04:26.418Z,1.01
2019-01-09T22:06:57.463Z,1.03
2019-01-09T22:09:28.353Z,1.11
2019-01-09T22:12:02.479Z,1.05
2019-01-09T22:14:32.019Z,1.04
2019-01-09T22:17:03.386Z,1.04
2019-01-09T22:19:34.257Z,1.04
2019-01-09T22:22:05.270Z,1.06
2019-01-09T22:24:36.728Z,1.06
2019-01-09T22:27:07.831Z,1.11
2019-01-09T22:29:39.039Z,1.11
2019-01-09T22:32:10.046Z,1.03
2019-01-09T22:34:40.894Z,1.01
2019-01-09T22:37:11.983Z,0.88
2019-01-09T22:39:43.065Z,0.92
2019-01-09T22:42:13.947Z,0.84
2019-01-09T22:44:44.878Z,0.78
2019-01-09T22:47:16.035Z,0.85
2019-01-09T22:49:47.347Z,0.91
2019-01-09T22:52:18.625Z,0.80
2019-01-09T22:54:49.637Z,0.83
2019-01-09T22:57:20.447Z,0.85
2019-01-09T22:59:51.498Z,0.88
2019-01-09T23:02:23.820Z,0.81
2019-01-09T23:04:54.951Z,0.79
2019-01-09T23:07:25.843Z,0.79
2019-01-09T23:09:56.931Z,0.82
2019-01-09T23:12:28.345Z,0.83
2019-01-09T23:14:59.439Z,0.86
2019-01-09T23:17:30.335Z,0.92
2019-01-09T23:20:01.639Z,0.89
2019-01-09T23:22:32.600Z,0.95
2019-01-09T23:25:03.855Z,0.87
2019-01-09T23:27:35.163Z,0.91
2019-01-09T23:30:08.564Z,0.86
2019-01-09T23:32:39.635Z,0.89
2019-01-09T23:35:10.607Z,0.86
2019-01-09T23:37:41.812Z,0.95
2019-01-09T23:40:13.712Z,1.00
2019-01-09T23:42:44.607Z,1.01
2019-01-09T23:45:16.070Z,1.03
2019-01-09T23:47:46.983Z,1.00
2019-01-09T23:50:17.854Z,1.00
2019-01-09T23:52:48.672Z,1.05
2019-01-09T23:55:19.836Z,1.01
2019-01-09T23:57:51.227Z,1.04
